• Join FlightAware (Why Join?)
  • Login
  • US Flag 
12:03PM EDT


 

Airport Tracker/Info


-or-


 

Live Flight TrackerFlight Track Log ✈ N72WP ✈ 07-May-2013 ✈ KCMI - KPDK

Flight Track Log - Related Links

Times and Time Zones

All times are in EDT time to prevent confusion due to time zone crossing. See the N72WP flight status page for this flight to view local times or setup timezone preferences in your user account.

Time Position Orientation Groundspeed Altitude Reporting Facility
EDT Latitude Longitude Course Direction KTS MPH feet Rate Location/Type
07:37PM 39.9228 -88.1931 142° Southeast 129 148 11,000  Level Indianapolis Center
07:38PM 39.8914 -88.1719 153° Southeast 134 154 11,000 -2,640 Level Indianapolis Center
07:39PM 40.0271 -88.2703 154° Southeast  Level FlightAware Approximate
07:39PM 39.8578 -88.1511 155° Southeast 133 153 5,600  Level Indianapolis Center
07:40PM 39.9831 -88.2423 154° Southeast  Level FlightAware Approximate
07:40PM 39.8247 -88.1239 148° Southeast 134 154 6,700  Level Indianapolis Center
07:41PM 39.9391 -88.2142 154° Southeast  Level FlightAware Approximate
07:41PM 39.7906 -88.1014 153° Southeast 137 158 7,600  Level Indianapolis Center
07:42PM 39.8960 -88.1838 142° Southeast  Level Estimated
07:42PM 39.7558 -88.0789 154° Southeast 139 160 8,500  Level Indianapolis Center
07:43PM 39.7208 -88.0564 154° Southeast 140 161 9,300 780 Climbing Indianapolis Center
07:44PM 39.6872 -88.0342 153° Southeast 138 159 10,200 780 Climbing Indianapolis Center
07:45PM 39.6469 -88.0061 152° Southeast 138 159 11,000 360 Climbing Indianapolis Center
07:46PM 39.6069 -87.9792 153° Southeast 155 178 11,000  Level Indianapolis Center
07:47PM 39.5631 -87.9519 154° Southeast 171 197 11,000  Level Indianapolis Center
07:48PM 39.5175 -87.9231 154° Southeast 180 207 11,000  Level Indianapolis Center
07:49PM 39.4683 -87.9031 163° South 184 212 11,000  Level Indianapolis Center
07:50PM 39.4186 -87.8850 164° South 185 213 11,000  Level Indianapolis Center
07:51PM 39.3622 -87.8625 163° South 185 213 11,000  Level Indianapolis Center
07:52PM 39.3097 -87.8442 165° South 191 220 11,000  Level Indianapolis Center
07:53PM 39.2567 -87.8261 165° South 195 224 11,000  Level Indianapolis Center
07:54PM 39.2058 -87.8092 166° South 191 220 11,000  Level Indianapolis Center
07:55PM 39.1536 -87.7919 166° South 192 221 11,100 480 Climbing Indianapolis Center
07:56PM 39.1100 -87.7769 165° South 171 197 12,100 840 Climbing Indianapolis Center
07:57PM 39.0628 -87.7597 164° South 152 175 12,900 420 Climbing Indianapolis Center
07:58PM 39.0153 -87.7447 166° South 161 185 13,000  Climbing Indianapolis Center
07:59PM 38.9644 -87.7228 161° South 183 211 13,000  Level Indianapolis Center
08:00PM 38.9192 -87.6919 152° Southeast 184 212 13,000 540 Level Indianapolis Center
08:01PM 38.8772 -87.6614 150° Southeast 174 200 14,200 960 Climbing Indianapolis Center
08:02PM 38.8419 -87.6389 154° Southeast 145 167 15,000 360 Climbing Indianapolis Center
08:03PM 38.8014 -87.6100 151° Southeast 164 189 15,000  Level Indianapolis Center
08:04PM 38.7558 -87.5778 151° Southeast 182 209 15,000  Level Indianapolis Center
08:05PM 38.7086 -87.5464 153° Southeast 190 219 15,000  Level Indianapolis Center
08:06PM 38.6542 -87.5089 152° Southeast 184 212 15,000  Level Indianapolis Center
08:07PM 38.6064 -87.4783 153° Southeast 191 220 15,000  Level Indianapolis Center
08:08PM 38.5581 -87.4458 152° Southeast 195 224 15,000  Level Indianapolis Center
08:09PM 38.5106 -87.4136 152° Southeast 192 221 15,000  Level Indianapolis Center
08:11PM 38.4628 -87.3822 153° Southeast 193 222 15,000  Level Indianapolis Center
08:12PM 38.4150 -87.3494 152° Southeast 193 222 15,000  Level Indianapolis Center
08:13PM 38.3667 -87.3167 152° Southeast 195 224 15,000  Level Indianapolis Center
08:14PM 38.3194 -87.2864 153° Southeast 192 221 15,000  Level Indianapolis Center
08:15PM 38.2619 -87.2481 152° Southeast 193 222 15,000  Level Indianapolis Center
08:16PM 38.2144 -87.2150 151° Southeast 195 224 15,000  Level Indianapolis Center
08:17PM 38.1664 -87.1833 153° Southeast 195 224 15,000  Level Indianapolis Center
08:18PM 38.1178 -87.1519 153° Southeast 196 226 15,000  Level Indianapolis Center
08:19PM 38.0694 -87.1194 152° Southeast 197 227 15,000  Level Indianapolis Center
08:20PM 38.0222 -87.0875 152° Southeast 194 223 15,000  Level Indianapolis Center
08:21PM 37.9742 -87.0553 152° Southeast 196 226 15,000  Level Indianapolis Center
08:22PM 37.9158 -87.0169 153° Southeast 195 224 15,000  Level Indianapolis Center
08:23PM 37.8672 -86.9844 152° Southeast 197 227 15,000  Level Indianapolis Center
08:24PM 37.8183 -86.9531 153° Southeast 197 227 15,000  Level Indianapolis Center
08:25PM 37.7689 -86.9206 153° Southeast 199 229 15,000  Level Indianapolis Center
08:26PM 37.7194 -86.8878 152° Southeast 200 230 15,000  Level Indianapolis Center
08:27PM 37.6700 -86.8572 154° Southeast 198 228 15,000  Level Indianapolis Center
08:28PM 37.6208 -86.8258 153° Southeast 197 227 15,000  Level Indianapolis Center
08:29PM 37.5722 -86.7931 152° Southeast 198 228 15,000  Level Indianapolis Center
08:30PM 37.5136 -86.7547 153° Southeast 198 228 15,000 -60 Level Indianapolis Center
08:31PM 37.4639 -86.7225 153° Southeast 198 228 14,900 -60 Descending Indianapolis Center
08:32PM 37.4153 -86.6906 152° Southeast 197 227 14,900  Level Indianapolis Center
08:33PM 37.3672 -86.6586 152° Southeast 195 224 15,000  Climbing Indianapolis Center
08:34PM 37.3181 -86.6281 154° Southeast 196 226 15,000  Level Indianapolis Center
08:35PM 37.2694 -86.5961 152° Southeast 195 224 15,000  Level Indianapolis Center
08:36PM 37.2208 -86.5647 153° Southeast 195 224 15,000  Level Indianapolis Center
08:37PM 37.1728 -86.5350 154° Southeast 193 222 15,000 -60 Level Indianapolis Center
08:38PM 37.1242 -86.5039 153° Southeast 197 227 14,900 -60 Descending Memphis Center
08:39PM 37.0772 -86.4725 152° Southeast 197 227 14,900  Level Memphis Center
08:40PM 37.0283 -86.4411 153° Southeast 197 227 15,000  Climbing Memphis Center
08:41PM 36.9753 -86.4072 153° Southeast 202 232 14,900  Descending Memphis Center
08:42PM 36.9264 -86.3758 153° Southeast 202 232 15,000  Climbing Memphis Center
08:43PM 36.8772 -86.3447 153° Southeast 202 232 14,900  Descending Memphis Center
08:44PM 36.8283 -86.3133 153° Southeast 202 232 15,000  Climbing Memphis Center
08:45PM 36.7794 -86.2822 153° Southeast 197 227 14,900 -60 Descending Memphis Center
08:46PM 36.7306 -86.2511 153° Southeast 197 227 14,900  Level Memphis Center
08:47PM 36.6794 -86.2200 154° Southeast 213 245 14,900  Level Memphis Center
08:48PM 36.6303 -86.1864 151° Southeast 202 232 15,000  Climbing Memphis Center
08:49PM 36.5858 -86.1603 155° Southeast 202 232 15,000 -60 Level Memphis Center
08:50PM 36.5389 -86.1292 152° Southeast 202 232 14,900 -360 Descending Memphis Center
08:51PM 36.4878 -86.0956 152° Southeast 202 232 14,300 -600 Descending Memphis Center
08:52PM 36.4386 -86.0647 153° Southeast 202 232 13,700 -600 Descending Memphis Center
08:53PM 36.3878 -86.0364 156° South 202 232 13,100 -600 Descending Memphis Center
08:54PM 36.3342 -86.0006 152° Southeast 202 232 12,600 -600 Descending Memphis Center
08:55PM 36.2831 -85.9700 154° Southeast 202 232 11,900 -600 Descending Memphis Center
08:56PM 36.2383 -85.9414 153° Southeast 197 227 11,400 -480 Descending Memphis Center
08:57PM 36.1914 -85.9131 154° Southeast 197 227 11,000 -240 Descending Memphis Center
08:58PM 36.1467 -85.8847 153° Southeast 192 221 11,000  Level Memphis Center
08:59PM 36.0997 -85.8539 152° Southeast 192 221 11,000  Level Memphis Center
09:00PM 36.0550 -85.8256 153° Southeast 192 221 11,100  Climbing Memphis Center
09:01PM 36.0058 -85.7950 153° Southeast 197 227 11,100  Level Memphis Center
09:02PM 35.9569 -85.7669 155° Southeast 197 227 11,100  Level Memphis Center
09:03PM 35.9097 -85.7361 152° Southeast 197 227 11,100  Level Memphis Center
09:04PM 35.8628 -85.7081 154° Southeast 197 227 11,100  Level Memphis Center
09:05PM 35.8158 -85.6775 152° Southeast 197 227 11,100  Level Memphis Center
09:06PM 35.7667 -85.6469 153° Southeast 197 227 11,100  Level Memphis Center
09:07PM 35.7197 -85.6164 152° Southeast 197 227 11,100  Level Memphis Center
09:08PM 35.6686 -85.5861 154° Southeast 197 227 11,100  Level Memphis Center
09:09PM 35.6214 -85.5556 152° Southeast 197 227 11,100 -60 Level Memphis Center
09:10PM 35.5744 -85.5253 152° Southeast 197 227 11,000  Descending Memphis Center
09:12PM 35.4950 -85.4825 156° South 195 224 11,100  Climbing Atlanta Center
09:13PM 35.4494 -85.4536 153° Southeast 195 224 11,000 -60 Descending Atlanta Center
09:14PM 35.3997 -85.4222 153° Southeast 195 224 11,000  Level Atlanta Center
09:15PM 35.3519 -85.3933 154° Southeast 195 224 11,000  Level Atlanta Center
09:16PM 35.3044 -85.3622 152° Southeast 195 224 11,000  Level Atlanta Center
09:17PM 35.2544 -85.3333 155° Southeast 195 224 11,000  Level Atlanta Center
09:18PM 35.2047 -85.3019 153° Southeast 195 224 11,000  Level Atlanta Center
09:19PM 35.1572 -85.2733 154° Southeast 195 224 11,000  Level Atlanta Center
09:20PM 35.1094 -85.2447 154° Southeast 195 224 11,000  Level Atlanta Center
09:21PM 35.0597 -85.2136 153° Southeast 195 224 11,000  Level Atlanta Center
09:22PM 35.0119 -85.1875 156° South 195 224 11,000  Level Atlanta Center
09:23PM 34.9578 -85.1667 163° South 195 224 11,000  Level Atlanta Center
09:24PM 34.9058 -85.1481 164° South 195 224 11,000  Level Atlanta Center
09:25PM 34.8539 -85.1272 162° South 195 224 11,000  Level Atlanta Center
09:26PM 34.8019 -85.1036 160° South 195 224 11,000  Level Atlanta Center
09:27PM 34.7500 -85.0828 162° South 195 224 11,000  Level Atlanta Center
09:28PM 34.6958 -85.0644 164° South 200 230 11,000  Level Atlanta Center
09:29PM 34.6439 -85.0411 160° South 205 236 11,000  Level Atlanta Center
09:30PM 34.5917 -85.0228 164° South 205 236 11,000  Level Atlanta Center
09:31PM 34.5397 -84.9994 160° South 205 236 11,000  Level Atlanta Center
09:32PM 34.4817 -84.9761 162° South 205 236 11,000 -300 Level Atlanta Center
09:33PM 34.4275 -84.9531 161° South 205 236 10,500 -660 Descending Atlanta Center
09:34PM 34.3733 -84.9347 164° South 205 236 9,700 -900 Descending Atlanta Center
09:35PM 34.3233 -84.9117 159° South 205 236 8,700 -840 Descending Atlanta Center
09:36PM 34.2756 -84.8961 165° South 193 222 8,100 -660 Descending Atlanta Center
09:37PM 34.2256 -84.8756 161° South 183 211 7,400 -660 Descending Atlanta Center
09:38PM 34.1842 -84.8397 144° Southeast 183 211 6,800 -780 Descending Atlanta Center
09:39PM 34.1719 -84.7869 106° East 156 180 5,900 -780 Descending Atlanta Center
09:40PM 34.1700 -84.7292 92° East 156 180 5,300 -540 Descending Atlanta Center
09:41PM 34.1600 -84.6789 104° East 168 193 4,900 -240 Descending Atlanta Center
09:42PM 34.1478 -84.6186 104° East 173 199 4,900 -300 Level Atlanta Center
09:44PM 34.1167 -84.4667 104° East 180 207 4,000 -420 Descending Atlanta TRACON
09:45PM 34.1000 -84.4000 107° East 182 209 3,500 -480 Descending Atlanta TRACON
09:47PM 34.0833 -84.3333 107° East 186 214 3,000 -240 Descending Atlanta TRACON
09:47PM 34.1000 -84.2833 68° East 157 181 3,000  Level Atlanta TRACON
09:48PM 34.1000 -84.2333 90° East 163 188 3,000  Level Atlanta TRACON
09:49PM 34.1000 -84.1833 90° East 159 183 3,000  Level Atlanta TRACON
09:50PM 34.1000 -84.1333 90° East 159 183 3,000  Level Atlanta TRACON
09:51PM 34.0500 -84.1167 165° South 157 181 3,000  Level Atlanta TRACON
09:52PM 34.0333 -84.1500 239° Southwest 120 138 3,000  Level Atlanta TRACON
09:53PM 34.0333 -84.1833 270° West 123 142 3,000  Level Atlanta TRACON
09:54PM 34.0167 -84.2167 239° Southwest 127 146 3,000  Level Atlanta TRACON
09:55PM 33.9833 -84.2500 220° Southwest 137 158 3,000 -180 Level Atlanta TRACON
09:56PM 33.9500 -84.2667 203° Southwest 119 137 2,700 -420 Descending Atlanta TRACON
09:57PM 33.9333 -84.2833 220° Southwest 97 112 2,200 -540 Descending Atlanta TRACON
09:58PM 33.9000 -84.2833 180° South 77 89 1,700 -540 Descending Atlanta TRACON
10:00PM 33.8756 -84.3020 204° Southwest  Level Estimated
10:07PM 33.8756 -84.3020 26° Northeast  Level Estimated
10:08PM 33.8756 -84.3020 176° South  Level Estimated